sensor_id;sensor_type;location;lat;lon;timestamp;P1;durP1;ratioP1;P2;durP2;ratioP2
8183;SDS011;4133;48.752;9.088;2023-05-07T00:02:14;2.40;;;1.87;;
8183;SDS011;4133;48.752;9.088;2023-05-07T00:04:40;3.90;;;1.80;;
8183;SDS011;4133;48.752;9.088;2023-05-07T00:07:07;1.80;;;1.70;;
8183;SDS011;4133;48.752;9.088;2023-05-07T00:09:33;4.77;;;1.77;;
8183;SDS011;4133;48.752;9.088;2023-05-07T00:11:59;3.37;;;1.70;;
8183;SDS011;4133;48.752;9.088;2023-05-07T00:14:25;3.53;;;1.90;;
8183;SDS011;4133;48.752;9.088;2023-05-07T00:16:52;2.90;;;1.70;;
8183;SDS011;4133;48.752;9.088;2023-05-07T00:19:18;1.93;;;1.80;;
8183;SDS011;4133;48.752;9.088;2023-05-07T00:21:44;3.50;;;1.90;;
8183;SDS011;4133;48.752;9.088;2023-05-07T00:24:10;5.73;;;2.20;;
8183;SDS011;4133;48.752;9.088;2023-05-07T00:26:36;3.60;;;2.00;;
8183;SDS011;4133;48.752;9.088;2023-05-07T00:29:02;2.17;;;1.90;;
8183;SDS011;4133;48.752;9.088;2023-05-07T00:31:28;2.40;;;2.10;;
8183;SDS011;4133;48.752;9.088;2023-05-07T00:33:54;3.20;;;2.00;;
8183;SDS011;4133;48.752;9.088;2023-05-07T00:36:20;3.17;;;2.10;;
8183;SDS011;4133;48.752;9.088;2023-05-07T00:38:45;5.07;;;2.10;;
8183;SDS011;4133;48.752;9.088;2023-05-07T00:41:11;2.20;;;1.90;;
8183;SDS011;4133;48.752;9.088;2023-05-07T00:43:37;3.93;;;2.00;;
8183;SDS011;4133;48.752;9.088;2023-05-07T00:46:04;5.67;;;2.03;;
8183;SDS011;4133;48.752;9.088;2023-05-07T00:48:30;2.90;;;2.20;;
8183;SDS011;4133;48.752;9.088;2023-05-07T00:50:56;3.87;;;1.90;;
8183;SDS011;4133;48.752;9.088;2023-05-07T00:53:22;2.23;;;1.90;;
8183;SDS011;4133;48.752;9.088;2023-05-07T00:55:48;5.03;;;2.53;;
8183;SDS011;4133;48.752;9.088;2023-05-07T00:58:14;3.57;;;2.20;;
8183;SDS011;4133;48.752;9.088;2023-05-07T01:00:40;4.77;;;2.37;;
8183;SDS011;4133;48.752;9.088;2023-05-07T01:03:07;2.20;;;2.00;;
8183;SDS011;4133;48.752;9.088;2023-05-07T01:08:17;2.60;;;1.87;;
8183;SDS011;4133;48.752;9.088;2023-05-07T01:10:44;3.07;;;2.20;;
8183;SDS011;4133;48.752;9.088;2023-05-07T01:13:10;2.43;;;2.17;;
8183;SDS011;4133;48.752;9.088;2023-05-07T01:15:38;3.53;;;2.13;;
8183;SDS011;4133;48.752;9.088;2023-05-07T01:18:05;2.27;;;2.13;;
8183;SDS011;4133;48.752;9.088;2023-05-07T01:20:31;4.10;;;2.37;;
8183;SDS011;4133;48.752;9.088;2023-05-07T01:22:58;2.30;;;2.10;;
8183;SDS011;4133;48.752;9.088;2023-05-07T01:25:25;2.63;;;2.40;;
8183;SDS011;4133;48.752;9.088;2023-05-07T01:27:51;3.67;;;2.10;;
8183;SDS011;4133;48.752;9.088;2023-05-07T01:30:17;2.57;;;1.93;;
8183;SDS011;4133;48.752;9.088;2023-05-07T01:32:48;2.93;;;2.03;;
8183;SDS011;4133;48.752;9.088;2023-05-07T01:35:16;3.13;;;2.00;;
8183;SDS011;4133;48.752;9.088;2023-05-07T01:37:44;3.50;;;2.33;;
8183;SDS011;4133;48.752;9.088;2023-05-07T01:40:10;2.40;;;1.90;;
8183;SDS011;4133;48.752;9.088;2023-05-07T01:42:37;2.03;;;1.90;;
8183;SDS011;4133;48.752;9.088;2023-05-07T01:45:03;3.57;;;2.20;;
8183;SDS011;4133;48.752;9.088;2023-05-07T01:47:29;2.63;;;1.93;;
8183;SDS011;4133;48.752;9.088;2023-05-07T01:49:56;2.63;;;1.80;;
8183;SDS011;4133;48.752;9.088;2023-05-07T01:52:22;2.20;;;2.00;;
8183;SDS011;4133;48.752;9.088;2023-05-07T01:54:49;4.20;;;2.00;;
8183;SDS011;4133;48.752;9.088;2023-05-07T01:57:15;4.77;;;1.90;;
8183;SDS011;4133;48.752;9.088;2023-05-07T01:59:41;2.30;;;2.10;;
8183;SDS011;4133;48.752;9.088;2023-05-07T02:02:07;3.47;;;2.17;;
8183;SDS011;4133;48.752;9.088;2023-05-07T02:04:33;4.43;;;2.30;;
8183;SDS011;4133;48.752;9.088;2023-05-07T02:07:12;2.40;;;2.20;;
8183;SDS011;4133;48.752;9.088;2023-05-07T02:09:38;4.63;;;2.17;;
8183;SDS011;4133;48.752;9.088;2023-05-07T02:12:04;2.47;;;2.27;;
8183;SDS011;4133;48.752;9.088;2023-05-07T02:14:30;2.30;;;2.10;;
8183;SDS011;4133;48.752;9.088;2023-05-07T02:16:56;2.33;;;2.13;;
8183;SDS011;4133;48.752;9.088;2023-05-07T02:19:22;3.90;;;2.10;;
8183;SDS011;4133;48.752;9.088;2023-05-07T02:21:48;3.03;;;1.90;;
8183;SDS011;4133;48.752;9.088;2023-05-07T02:24:14;3.00;;;2.10;;
8183;SDS011;4133;48.752;9.088;2023-05-07T02:26:40;3.50;;;2.13;;
8183;SDS011;4133;48.752;9.088;2023-05-07T02:29:06;1.93;;;1.83;;
8183;SDS011;4133;48.752;9.088;2023-05-07T02:31:32;2.17;;;1.90;;
8183;SDS011;4133;48.752;9.088;2023-05-07T02:34:01;2.27;;;2.07;;
8183;SDS011;4133;48.752;9.088;2023-05-07T02:36:27;3.17;;;2.23;;
8183;SDS011;4133;48.752;9.088;2023-05-07T02:38:53;2.47;;;2.27;;
8183;SDS011;4133;48.752;9.088;2023-05-07T02:41:19;4.93;;;2.30;;
8183;SDS011;4133;48.752;9.088;2023-05-07T02:43:45;4.03;;;2.50;;
8183;SDS011;4133;48.752;9.088;2023-05-07T02:46:12;3.90;;;2.10;;
8183;SDS011;4133;48.752;9.088;2023-05-07T02:48:38;2.50;;;2.20;;
8183;SDS011;4133;48.752;9.088;2023-05-07T02:51:04;3.43;;;2.20;;
8183;SDS011;4133;48.752;9.088;2023-05-07T02:53:30;2.70;;;2.40;;
8183;SDS011;4133;48.752;9.088;2023-05-07T02:55:56;3.67;;;2.20;;
8183;SDS011;4133;48.752;9.088;2023-05-07T02:58:23;4.40;;;2.50;;
8183;SDS011;4133;48.752;9.088;2023-05-07T03:00:49;3.07;;;2.20;;
8183;SDS011;4133;48.752;9.088;2023-05-07T03:03:15;4.00;;;2.60;;
8183;SDS011;4133;48.752;9.088;2023-05-07T03:05:49;4.20;;;2.33;;
8183;SDS011;4133;48.752;9.088;2023-05-07T03:08:15;2.50;;;2.30;;
8183;SDS011;4133;48.752;9.088;2023-05-07T03:10:41;5.67;;;2.70;;
8183;SDS011;4133;48.752;9.088;2023-05-07T03:13:07;2.57;;;2.27;;
8183;SDS011;4133;48.752;9.088;2023-05-07T03:15:33;3.63;;;2.40;;
8183;SDS011;4133;48.752;9.088;2023-05-07T03:17:59;4.77;;;2.50;;
8183;SDS011;4133;48.752;9.088;2023-05-07T03:20:25;3.67;;;2.30;;
8183;SDS011;4133;48.752;9.088;2023-05-07T03:22:51;7.83;;;3.33;;
8183;SDS011;4133;48.752;9.088;2023-05-07T03:25:17;3.23;;;2.33;;
8183;SDS011;4133;48.752;9.088;2023-05-07T03:27:43;2.77;;;2.57;;
8183;SDS011;4133;48.752;9.088;2023-05-07T03:30:09;3.80;;;2.40;;
8183;SDS011;4133;48.752;9.088;2023-05-07T03:32:36;3.00;;;2.53;;
8183;SDS011;4133;48.752;9.088;2023-05-07T03:35:02;2.20;;;2.00;;
8183;SDS011;4133;48.752;9.088;2023-05-07T03:37:28;2.77;;;2.50;;
8183;SDS011;4133;48.752;9.088;2023-05-07T03:39:54;2.87;;;2.57;;
8183;SDS011;4133;48.752;9.088;2023-05-07T03:42:20;2.40;;;2.20;;
8183;SDS011;4133;48.752;9.088;2023-05-07T03:44:46;4.10;;;2.53;;
8183;SDS011;4133;48.752;9.088;2023-05-07T03:47:12;2.43;;;2.23;;
8183;SDS011;4133;48.752;9.088;2023-05-07T03:49:38;3.30;;;2.30;;
8183;SDS011;4133;48.752;9.088;2023-05-07T03:52:04;3.37;;;2.53;;
8183;SDS011;4133;48.752;9.088;2023-05-07T03:54:30;3.23;;;2.80;;
8183;SDS011;4133;48.752;9.088;2023-05-07T03:56:56;2.77;;;2.50;;
8183;SDS011;4133;48.752;9.088;2023-05-07T03:59:22;3.07;;;2.77;;
8183;SDS011;4133;48.752;9.088;2023-05-07T04:01:48;3.07;;;2.60;;
8183;SDS011;4133;48.752;9.088;2023-05-07T04:04:14;3.77;;;2.73;;
8183;SDS011;4133;48.752;9.088;2023-05-07T04:06:42;4.37;;;2.53;;
8183;SDS011;4133;48.752;9.088;2023-05-07T04:09:08;3.00;;;2.63;;
8183;SDS011;4133;48.752;9.088;2023-05-07T04:11:35;4.90;;;2.23;;
8183;SDS011;4133;48.752;9.088;2023-05-07T04:14:01;2.83;;;2.53;;
8183;SDS011;4133;48.752;9.088;2023-05-07T04:16:27;2.50;;;2.30;;
8183;SDS011;4133;48.752;9.088;2023-05-07T04:18:53;3.97;;;2.60;;
8183;SDS011;4133;48.752;9.088;2023-05-07T04:21:19;4.30;;;2.60;;
8183;SDS011;4133;48.752;9.088;2023-05-07T04:23:46;4.67;;;2.63;;
8183;SDS011;4133;48.752;9.088;2023-05-07T04:26:12;2.53;;;2.30;;
8183;SDS011;4133;48.752;9.088;2023-05-07T04:28:38;3.07;;;2.30;;
8183;SDS011;4133;48.752;9.088;2023-05-07T04:31:05;7.47;;;2.70;;
8183;SDS011;4133;48.752;9.088;2023-05-07T04:33:31;3.63;;;2.50;;
8183;SDS011;4133;48.752;9.088;2023-05-07T04:35:58;8.47;;;2.73;;
8183;SDS011;4133;48.752;9.088;2023-05-07T04:38:28;3.77;;;2.30;;
8183;SDS011;4133;48.752;9.088;2023-05-07T04:40:55;4.07;;;2.20;;
8183;SDS011;4133;48.752;9.088;2023-05-07T04:43:22;2.43;;;2.20;;
8183;SDS011;4133;48.752;9.088;2023-05-07T04:45:49;2.40;;;2.20;;
8183;SDS011;4133;48.752;9.088;2023-05-07T04:48:26;2.27;;;2.10;;
8183;SDS011;4133;48.752;9.088;2023-05-07T04:50:52;2.77;;;2.20;;
8183;SDS011;4133;48.752;9.088;2023-05-07T04:53:18;5.57;;;2.40;;
8183;SDS011;4133;48.752;9.088;2023-05-07T04:55:44;2.53;;;2.33;;
8183;SDS011;4133;48.752;9.088;2023-05-07T04:58:11;2.50;;;2.30;;
8183;SDS011;4133;48.752;9.088;2023-05-07T05:00:37;5.07;;;2.63;;
8183;SDS011;4133;48.752;9.088;2023-05-07T05:03:04;5.00;;;2.57;;
8183;SDS011;4133;48.752;9.088;2023-05-07T05:05:30;3.07;;;2.77;;
8183;SDS011;4133;48.752;9.088;2023-05-07T05:07:56;4.77;;;2.20;;
8183;SDS011;4133;48.752;9.088;2023-05-07T05:10:22;3.10;;;2.80;;
8183;SDS011;4133;48.752;9.088;2023-05-07T05:12:48;2.67;;;2.47;;
8183;SDS011;4133;48.752;9.088;2023-05-07T05:15:14;3.50;;;2.20;;
8183;SDS011;4133;48.752;9.088;2023-05-07T05:17:40;2.20;;;2.00;;
8183;SDS011;4133;48.752;9.088;2023-05-07T05:20:06;2.40;;;2.20;;
8183;SDS011;4133;48.752;9.088;2023-05-07T05:22:34;3.83;;;2.07;;
8183;SDS011;4133;48.752;9.088;2023-05-07T05:25:00;3.97;;;2.20;;
8183;SDS011;4133;48.752;9.088;2023-05-07T05:27:26;2.60;;;2.40;;
8183;SDS011;4133;48.752;9.088;2023-05-07T05:29:52;2.40;;;2.20;;
8183;SDS011;4133;48.752;9.088;2023-05-07T05:32:18;4.30;;;2.47;;
8183;SDS011;4133;48.752;9.088;2023-05-07T05:34:44;2.27;;;2.07;;
8183;SDS011;4133;48.752;9.088;2023-05-07T05:37:10;2.83;;;2.20;;
8183;SDS011;4133;48.752;9.088;2023-05-07T05:39:36;2.10;;;2.00;;
8183;SDS011;4133;48.752;9.088;2023-05-07T05:42:02;2.20;;;2.00;;
8183;SDS011;4133;48.752;9.088;2023-05-07T05:44:28;2.37;;;2.07;;
8183;SDS011;4133;48.752;9.088;2023-05-07T05:46:54;3.27;;;2.50;;
8183;SDS011;4133;48.752;9.088;2023-05-07T05:52:25;3.23;;;2.10;;
8183;SDS011;4133;48.752;9.088;2023-05-07T05:54:51;2.50;;;2.00;;
8183;SDS011;4133;48.752;9.088;2023-05-07T05:57:17;3.73;;;2.40;;
8183;SDS011;4133;48.752;9.088;2023-05-07T05:59:44;4.60;;;2.30;;
8183;SDS011;4133;48.752;9.088;2023-05-07T06:02:10;2.60;;;2.40;;
8183;SDS011;4133;48.752;9.088;2023-05-07T06:04:36;2.43;;;1.90;;
8183;SDS011;4133;48.752;9.088;2023-05-07T06:07:02;4.13;;;2.20;;
8183;SDS011;4133;48.752;9.088;2023-05-07T06:09:28;2.40;;;2.20;;
8183;SDS011;4133;48.752;9.088;2023-05-07T06:11:54;3.35;;;2.50;;
8183;SDS011;4133;48.752;9.088;2023-05-07T06:14:20;4.97;;;2.17;;
8183;SDS011;4133;48.752;9.088;2023-05-07T06:16:46;2.10;;;2.00;;
8183;SDS011;4133;48.752;9.088;2023-05-07T06:19:12;2.43;;;2.20;;
8183;SDS011;4133;48.752;9.088;2023-05-07T06:21:38;2.43;;;2.23;;
8183;SDS011;4133;48.752;9.088;2023-05-07T06:24:05;3.10;;;2.00;;
8183;SDS011;4133;48.752;9.088;2023-05-07T06:26:31;3.63;;;2.40;;
8183;SDS011;4133;48.752;9.088;2023-05-07T06:28:57;4.28;;;2.60;;
8183;SDS011;4133;48.752;9.088;2023-05-07T06:31:28;2.60;;;2.13;;
8183;SDS011;4133;48.752;9.088;2023-05-07T06:33:55;3.35;;;2.50;;
8183;SDS011;4133;48.752;9.088;2023-05-07T06:36:21;2.65;;;2.25;;
8183;SDS011;4133;48.752;9.088;2023-05-07T06:38:47;4.72;;;2.20;;
8183;SDS011;4133;48.752;9.088;2023-05-07T06:41:13;2.88;;;2.28;;
8183;SDS011;4133;48.752;9.088;2023-05-07T06:43:39;3.45;;;2.35;;
8183;SDS011;4133;48.752;9.088;2023-05-07T06:46:05;4.50;;;2.60;;
8183;SDS011;4133;48.752;9.088;2023-05-07T06:51:35;2.45;;;2.25;;
8183;SDS011;4133;48.752;9.088;2023-05-07T06:54:01;2.90;;;2.70;;
8183;SDS011;4133;48.752;9.088;2023-05-07T06:56:31;3.38;;;2.50;;
8183;SDS011;4133;48.752;9.088;2023-05-07T06:58:57;2.60;;;2.33;;
8183;SDS011;4133;48.752;9.088;2023-05-07T07:01:23;2.53;;;2.30;;
8183;SDS011;4133;48.752;9.088;2023-05-07T07:03:49;3.13;;;2.40;;
8183;SDS011;4133;48.752;9.088;2023-05-07T07:06:16;2.67;;;2.38;;
8183;SDS011;4133;48.752;9.088;2023-05-07T07:08:42;2.85;;;2.40;;
8183;SDS011;4133;48.752;9.088;2023-05-07T07:11:09;4.15;;;2.58;;
8183;SDS011;4133;48.752;9.088;2023-05-07T07:13:35;3.65;;;2.78;;
8183;SDS011;4133;48.752;9.088;2023-05-07T07:16:01;3.03;;;2.60;;
8183;SDS011;4133;48.752;9.088;2023-05-07T07:18:27;6.25;;;2.88;;
8183;SDS011;4133;48.752;9.088;2023-05-07T07:20:54;3.40;;;2.13;;
8183;SDS011;4133;48.752;9.088;2023-05-07T07:23:20;4.15;;;2.28;;
8183;SDS011;4133;48.752;9.088;2023-05-07T07:25:46;3.90;;;2.80;;
8183;SDS011;4133;48.752;9.088;2023-05-07T07:28:13;4.68;;;2.50;;
8183;SDS011;4133;48.752;9.088;2023-05-07T07:30:39;4.20;;;2.65;;
8183;SDS011;4133;48.752;9.088;2023-05-07T07:33:05;3.05;;;2.20;;
8183;SDS011;4133;48.752;9.088;2023-05-07T07:35:31;4.15;;;2.50;;
8183;SDS011;4133;48.752;9.088;2023-05-07T07:37:58;5.00;;;2.40;;
8183;SDS011;4133;48.752;9.088;2023-05-07T07:40:23;3.85;;;2.67;;
8183;SDS011;4133;48.752;9.088;2023-05-07T07:42:50;4.93;;;2.50;;
8183;SDS011;4133;48.752;9.088;2023-05-07T07:45:16;3.90;;;2.20;;
8183;SDS011;4133;48.752;9.088;2023-05-07T07:47:42;3.63;;;2.15;;
8183;SDS011;4133;48.752;9.088;2023-05-07T07:53:11;4.28;;;2.40;;
8183;SDS011;4133;48.752;9.088;2023-05-07T07:55:38;3.30;;;2.05;;
8183;SDS011;4133;48.752;9.088;2023-05-07T07:58:05;2.40;;;2.20;;
8183;SDS011;4133;48.752;9.088;2023-05-07T08:00:31;2.38;;;2.10;;
8183;SDS011;4133;48.752;9.088;2023-05-07T08:02:57;2.30;;;2.10;;
8183;SDS011;4133;48.752;9.088;2023-05-07T08:05:23;2.95;;;1.90;;
8183;SDS011;4133;48.752;9.088;2023-05-07T08:07:49;3.20;;;2.20;;
8183;SDS011;4133;48.752;9.088;2023-05-07T08:10:18;2.33;;;2.08;;
8183;SDS011;4133;48.752;9.088;2023-05-07T08:12:48;2.35;;;2.08;;
8183;SDS011;4133;48.752;9.088;2023-05-07T08:15:14;3.30;;;2.13;;
8183;SDS011;4133;48.752;9.088;2023-05-07T08:17:40;3.67;;;2.20;;
8183;SDS011;4133;48.752;9.088;2023-05-07T08:20:06;2.17;;;1.90;;
8183;SDS011;4133;48.752;9.088;2023-05-07T08:22:33;2.08;;;1.83;;
8183;SDS011;4133;48.752;9.088;2023-05-07T08:24:59;2.47;;;1.80;;
8183;SDS011;4133;48.752;9.088;2023-05-07T08:27:25;2.10;;;1.77;;
8183;SDS011;4133;48.752;9.088;2023-05-07T08:29:51;4.47;;;1.77;;
8183;SDS011;4133;48.752;9.088;2023-05-07T08:32:17;3.08;;;2.30;;
8183;SDS011;4133;48.752;9.088;2023-05-07T08:34:43;3.97;;;1.88;;
8183;SDS011;4133;48.752;9.088;2023-05-07T08:37:09;3.20;;;2.15;;
8183;SDS011;4133;48.752;9.088;2023-05-07T08:39:35;2.38;;;1.90;;
8183;SDS011;4133;48.752;9.088;2023-05-07T08:42:01;2.00;;;1.90;;
8183;SDS011;4133;48.752;9.088;2023-05-07T08:44:33;2.28;;;1.80;;
8183;SDS011;4133;48.752;9.088;2023-05-07T08:47:00;3.40;;;1.80;;
8183;SDS011;4133;48.752;9.088;2023-05-07T08:52:31;2.30;;;1.85;;
8183;SDS011;4133;48.752;9.088;2023-05-07T08:54:57;2.60;;;1.92;;
8183;SDS011;4133;48.752;9.088;2023-05-07T08:57:24;1.90;;;1.70;;
8183;SDS011;4133;48.752;9.088;2023-05-07T08:59:50;2.25;;;1.70;;
8183;SDS011;4133;48.752;9.088;2023-05-07T09:02:16;2.58;;;1.75;;
8183;SDS011;4133;48.752;9.088;2023-05-07T09:04:43;2.40;;;1.90;;
8183;SDS011;4133;48.752;9.088;2023-05-07T09:07:09;2.33;;;1.95;;
8183;SDS011;4133;48.752;9.088;2023-05-07T09:09:35;3.72;;;1.88;;
8183;SDS011;4133;48.752;9.088;2023-05-07T09:12:01;2.40;;;1.80;;
8183;SDS011;4133;48.752;9.088;2023-05-07T09:14:28;2.22;;;1.65;;
8183;SDS011;4133;48.752;9.088;2023-05-07T09:16:55;2.00;;;1.90;;
8183;SDS011;4133;48.752;9.088;2023-05-07T09:19:22;3.88;;;1.67;;
8183;SDS011;4133;48.752;9.088;2023-05-07T09:21:49;4.22;;;2.00;;
8183;SDS011;4133;48.752;9.088;2023-05-07T09:24:15;3.25;;;2.13;;
8183;SDS011;4133;48.752;9.088;2023-05-07T09:26:41;5.40;;;1.90;;
8183;SDS011;4133;48.752;9.088;2023-05-07T09:29:07;2.05;;;1.70;;
8183;SDS011;4133;48.752;9.088;2023-05-07T09:31:38;1.92;;;1.80;;
8183;SDS011;4133;48.752;9.088;2023-05-07T09:34:05;3.40;;;1.70;;
8183;SDS011;4133;48.752;9.088;2023-05-07T09:36:31;2.83;;;1.90;;
8183;SDS011;4133;48.752;9.088;2023-05-07T09:39:01;4.00;;;2.08;;
8183;SDS011;4133;48.752;9.088;2023-05-07T09:41:27;1.98;;;1.77;;
8183;SDS011;4133;48.752;9.088;2023-05-07T09:43:56;1.70;;;1.60;;
8183;SDS011;4133;48.752;9.088;2023-05-07T09:46:28;6.13;;;1.80;;
8183;SDS011;4133;48.752;9.088;2023-05-07T09:51:59;3.45;;;1.88;;
8183;SDS011;4133;48.752;9.088;2023-05-07T09:54:26;4.40;;;1.70;;
8183;SDS011;4133;48.752;9.088;2023-05-07T09:56:54;4.50;;;2.05;;
8183;SDS011;4133;48.752;9.088;2023-05-07T09:59:21;2.20;;;1.60;;
8183;SDS011;4133;48.752;9.088;2023-05-07T10:01:47;3.13;;;1.65;;
8183;SDS011;4133;48.752;9.088;2023-05-07T10:04:13;2.28;;;1.83;;
8183;SDS011;4133;48.752;9.088;2023-05-07T10:06:40;3.22;;;1.70;;
8183;SDS011;4133;48.752;9.088;2023-05-07T10:09:06;3.47;;;1.65;;
8183;SDS011;4133;48.752;9.088;2023-05-07T10:11:36;5.15;;;1.90;;
8183;SDS011;4133;48.752;9.088;2023-05-07T10:14:03;3.38;;;1.60;;
8183;SDS011;4133;48.752;9.088;2023-05-07T10:16:34;4.65;;;2.03;;
8183;SDS011;4133;48.752;9.088;2023-05-07T10:19:04;1.98;;;1.60;;
8183;SDS011;4133;48.752;9.088;2023-05-07T10:21:30;3.83;;;1.50;;
8183;SDS011;4133;48.752;9.088;2023-05-07T10:24:04;3.45;;;1.80;;
8183;SDS011;4133;48.752;9.088;2023-05-07T10:26:35;2.20;;;1.52;;
8183;SDS011;4133;48.752;9.088;2023-05-07T10:29:03;3.42;;;1.60;;
8183;SDS011;4133;48.752;9.088;2023-05-07T10:34:13;1.67;;;1.55;;
8183;SDS011;4133;48.752;9.088;2023-05-07T10:36:41;2.08;;;1.70;;
8183;SDS011;4133;48.752;9.088;2023-05-07T10:39:08;2.60;;;1.45;;
8183;SDS011;4133;48.752;9.088;2023-05-07T10:41:34;3.03;;;2.10;;
8183;SDS011;4133;48.752;9.088;2023-05-07T10:44:00;2.75;;;2.00;;
8183;SDS011;4133;48.752;9.088;2023-05-07T10:46:27;3.15;;;1.80;;
8183;SDS011;4133;48.752;9.088;2023-05-07T10:54:41;2.30;;;1.63;;
8183;SDS011;4133;48.752;9.088;2023-05-07T11:00:06;2.22;;;1.40;;
8183;SDS011;4133;48.752;9.088;2023-05-07T11:05:26;2.60;;;1.95;;
8183;SDS011;4133;48.752;9.088;2023-05-07T11:07:55;3.65;;;1.50;;
8183;SDS011;4133;48.752;9.088;2023-05-07T11:10:22;2.17;;;1.80;;
8183;SDS011;4133;48.752;9.088;2023-05-07T11:12:48;3.25;;;1.52;;
8183;SDS011;4133;48.752;9.088;2023-05-07T11:15:15;4.28;;;1.70;;
8183;SDS011;4133;48.752;9.088;2023-05-07T11:17:54;1.70;;;1.60;;
8183;SDS011;4133;48.752;9.088;2023-05-07T11:20:20;3.83;;;1.48;;
8183;SDS011;4133;48.752;9.088;2023-05-07T11:22:47;3.17;;;1.80;;
8183;SDS011;4133;48.752;9.088;2023-05-07T11:25:19;2.80;;;1.67;;
8183;SDS011;4133;48.752;9.088;2023-05-07T11:27:45;2.97;;;1.70;;
8183;SDS011;4133;48.752;9.088;2023-05-07T11:30:16;2.90;;;2.17;;
8183;SDS011;4133;48.752;9.088;2023-05-07T11:32:47;5.10;;;1.90;;
8183;SDS011;4133;48.752;9.088;2023-05-07T11:35:13;1.95;;;1.60;;
8183;SDS011;4133;48.752;9.088;2023-05-07T11:37:41;3.95;;;1.73;;
8183;SDS011;4133;48.752;9.088;2023-05-07T11:40:08;13.35;;;2.10;;
8183;SDS011;4133;48.752;9.088;2023-05-07T11:42:36;9.18;;;2.47;;
8183;SDS011;4133;48.752;9.088;2023-05-07T11:45:02;9.18;;;3.22;;
8183;SDS011;4133;48.752;9.088;2023-05-07T11:47:32;9.02;;;3.75;;
8183;SDS011;4133;48.752;9.088;2023-05-07T11:50:06;8.95;;;2.90;;
8183;SDS011;4133;48.752;9.088;2023-05-07T11:52:32;10.45;;;3.03;;
8183;SDS011;4133;48.752;9.088;2023-05-07T11:54:59;7.68;;;3.22;;
8183;SDS011;4133;48.752;9.088;2023-05-07T11:57:26;8.45;;;3.53;;
8183;SDS011;4133;48.752;9.088;2023-05-07T11:59:55;8.55;;;4.28;;
8183;SDS011;4133;48.752;9.088;2023-05-07T12:02:21;14.73;;;4.13;;
8183;SDS011;4133;48.752;9.088;2023-05-07T12:04:49;10.30;;;4.28;;
8183;SDS011;4133;48.752;9.088;2023-05-07T12:07:15;10.32;;;4.47;;
8183;SDS011;4133;48.752;9.088;2023-05-07T12:09:42;6.68;;;4.03;;
8183;SDS011;4133;48.752;9.088;2023-05-07T12:12:08;7.72;;;2.30;;
8183;SDS011;4133;48.752;9.088;2023-05-07T12:14:43;8.95;;;2.30;;
8183;SDS011;4133;48.752;9.088;2023-05-07T12:17:10;4.72;;;2.70;;
8183;SDS011;4133;48.752;9.088;2023-05-07T12:19:37;6.53;;;2.38;;
8183;SDS011;4133;48.752;9.088;2023-05-07T12:22:03;6.78;;;2.58;;
8183;SDS011;4133;48.752;9.088;2023-05-07T12:24:46;7.60;;;3.25;;
8183;SDS011;4133;48.752;9.088;2023-05-07T12:27:12;4.27;;;1.70;;
8183;SDS011;4133;48.752;9.088;2023-05-07T12:29:38;8.57;;;2.10;;
8183;SDS011;4133;48.752;9.088;2023-05-07T12:32:06;7.22;;;2.50;;
8183;SDS011;4133;48.752;9.088;2023-05-07T12:34:32;8.07;;;3.00;;
8183;SDS011;4133;48.752;9.088;2023-05-07T12:37:01;10.13;;;3.20;;
8183;SDS011;4133;48.752;9.088;2023-05-07T12:39:28;12.07;;;3.28;;
8183;SDS011;4133;48.752;9.088;2023-05-07T12:41:55;7.20;;;2.80;;
8183;SDS011;4133;48.752;9.088;2023-05-07T12:44:31;6.53;;;2.85;;
8183;SDS011;4133;48.752;9.088;2023-05-07T12:46:58;6.43;;;2.92;;
8183;SDS011;4133;48.752;9.088;2023-05-07T12:52:30;9.48;;;3.20;;
8183;SDS011;4133;48.752;9.088;2023-05-07T12:58:00;8.30;;;3.50;;
8183;SDS011;4133;48.752;9.088;2023-05-07T13:00:34;6.47;;;4.77;;
8183;SDS011;4133;48.752;9.088;2023-05-07T13:03:00;4.50;;;3.57;;
8183;SDS011;4133;48.752;9.088;2023-05-07T13:05:26;6.30;;;3.67;;
8183;SDS011;4133;48.752;9.088;2023-05-07T13:07:56;4.80;;;2.90;;
8183;SDS011;4133;48.752;9.088;2023-05-07T13:10:22;8.80;;;3.42;;
8183;SDS011;4133;48.752;9.088;2023-05-07T13:12:48;7.25;;;3.10;;
8183;SDS011;4133;48.752;9.088;2023-05-07T13:15:14;7.78;;;3.10;;
8183;SDS011;4133;48.752;9.088;2023-05-07T13:17:41;6.85;;;2.80;;
8183;SDS011;4133;48.752;9.088;2023-05-07T13:20:07;7.18;;;2.78;;
8183;SDS011;4133;48.752;9.088;2023-05-07T13:22:34;4.13;;;2.50;;
8183;SDS011;4133;48.752;9.088;2023-05-07T13:25:00;4.95;;;2.38;;
8183;SDS011;4133;48.752;9.088;2023-05-07T13:27:26;2.25;;;1.73;;
8183;SDS011;4133;48.752;9.088;2023-05-07T13:29:52;3.10;;;1.58;;
8183;SDS011;4133;48.752;9.088;2023-05-07T13:32:18;4.20;;;1.73;;
8183;SDS011;4133;48.752;9.088;2023-05-07T13:34:43;4.28;;;1.73;;
8183;SDS011;4133;48.752;9.088;2023-05-07T13:37:09;5.68;;;1.95;;
8183;SDS011;4133;48.752;9.088;2023-05-07T13:39:35;1.90;;;1.70;;
8183;SDS011;4133;48.752;9.088;2023-05-07T13:42:01;2.72;;;1.80;;
8183;SDS011;4133;48.752;9.088;2023-05-07T13:44:27;3.53;;;1.57;;
8183;SDS011;4133;48.752;9.088;2023-05-07T13:46:54;1.43;;;1.33;;
8183;SDS011;4133;48.752;9.088;2023-05-07T13:49:21;2.55;;;1.90;;
8183;SDS011;4133;48.752;9.088;2023-05-07T13:51:47;2.20;;;1.90;;
8183;SDS011;4133;48.752;9.088;2023-05-07T13:54:13;2.30;;;1.60;;
8183;SDS011;4133;48.752;9.088;2023-05-07T13:56:39;3.28;;;1.75;;
8183;SDS011;4133;48.752;9.088;2023-05-07T13:59:05;3.57;;;1.90;;
8183;SDS011;4133;48.752;9.088;2023-05-07T14:01:31;3.17;;;2.17;;
8183;SDS011;4133;48.752;9.088;2023-05-07T14:03:57;3.25;;;2.15;;
8183;SDS011;4133;48.752;9.088;2023-05-07T14:06:24;3.92;;;2.10;;
8183;SDS011;4133;48.752;9.088;2023-05-07T14:08:50;4.07;;;2.22;;
8183;SDS011;4133;48.752;9.088;2023-05-07T14:11:16;6.03;;;1.90;;
8183;SDS011;4133;48.752;9.088;2023-05-07T14:13:42;4.50;;;2.13;;
8183;SDS011;4133;48.752;9.088;2023-05-07T14:16:08;5.00;;;2.40;;
8183;SDS011;4133;48.752;9.088;2023-05-07T14:18:34;6.50;;;2.30;;
8183;SDS011;4133;48.752;9.088;2023-05-07T14:21:01;4.07;;;2.30;;
8183;SDS011;4133;48.752;9.088;2023-05-07T14:23:28;4.85;;;2.70;;
8183;SDS011;4133;48.752;9.088;2023-05-07T14:25:54;7.68;;;2.78;;
8183;SDS011;4133;48.752;9.088;2023-05-07T14:28:23;4.57;;;2.50;;
8183;SDS011;4133;48.752;9.088;2023-05-07T14:30:49;5.15;;;2.70;;
8183;SDS011;4133;48.752;9.088;2023-05-07T14:33:15;4.40;;;2.30;;
8183;SDS011;4133;48.752;9.088;2023-05-07T14:35:41;4.65;;;2.58;;
8183;SDS011;4133;48.752;9.088;2023-05-07T14:38:12;5.00;;;2.60;;
8183;SDS011;4133;48.752;9.088;2023-05-07T14:40:38;2.97;;;2.45;;
8183;SDS011;4133;48.752;9.088;2023-05-07T14:43:04;3.88;;;2.40;;
8183;SDS011;4133;48.752;9.088;2023-05-07T14:45:30;4.15;;;2.40;;
8183;SDS011;4133;48.752;9.088;2023-05-07T14:47:56;4.50;;;2.60;;
8183;SDS011;4133;48.752;9.088;2023-05-07T14:50:28;3.40;;;2.27;;
8183;SDS011;4133;48.752;9.088;2023-05-07T14:52:54;4.72;;;2.22;;
8183;SDS011;4133;48.752;9.088;2023-05-07T14:55:20;4.65;;;2.67;;
8183;SDS011;4133;48.752;9.088;2023-05-07T14:57:46;3.50;;;2.65;;
8183;SDS011;4133;48.752;9.088;2023-05-07T15:00:12;3.10;;;2.58;;
8183;SDS011;4133;48.752;9.088;2023-05-07T15:02:38;3.00;;;2.58;;
8183;SDS011;4133;48.752;9.088;2023-05-07T15:05:04;3.75;;;2.80;;
8183;SDS011;4133;48.752;9.088;2023-05-07T15:07:30;4.25;;;3.00;;
8183;SDS011;4133;48.752;9.088;2023-05-07T15:09:57;7.97;;;3.65;;
8183;SDS011;4133;48.752;9.088;2023-05-07T15:12:23;7.03;;;3.40;;
8183;SDS011;4133;48.752;9.088;2023-05-07T15:14:49;8.68;;;3.20;;
8183;SDS011;4133;48.752;9.088;2023-05-07T15:17:15;4.57;;;2.90;;
8183;SDS011;4133;48.752;9.088;2023-05-07T15:19:41;5.18;;;3.05;;
8183;SDS011;4133;48.752;9.088;2023-05-07T15:22:07;3.30;;;2.70;;
8183;SDS011;4133;48.752;9.088;2023-05-07T15:24:33;6.05;;;2.80;;
8183;SDS011;4133;48.752;9.088;2023-05-07T15:26:59;3.50;;;2.92;;
8183;SDS011;4133;48.752;9.088;2023-05-07T15:29:27;5.55;;;3.25;;
8183;SDS011;4133;48.752;9.088;2023-05-07T15:31:53;9.00;;;2.95;;
8183;SDS011;4133;48.752;9.088;2023-05-07T15:34:20;4.57;;;3.03;;
8183;SDS011;4133;48.752;9.088;2023-05-07T15:36:46;5.20;;;2.63;;
8183;SDS011;4133;48.752;9.088;2023-05-07T15:39:12;3.47;;;2.33;;
8183;SDS011;4133;48.752;9.088;2023-05-07T15:41:38;5.68;;;2.78;;
8183;SDS011;4133;48.752;9.088;2023-05-07T15:44:04;5.50;;;2.83;;
8183;SDS011;4133;48.752;9.088;2023-05-07T15:46:30;4.55;;;2.78;;
8183;SDS011;4133;48.752;9.088;2023-05-07T15:48:56;5.38;;;2.90;;
8183;SDS011;4133;48.752;9.088;2023-05-07T15:51:22;3.90;;;2.70;;